Time;durP1;ratioP1;P1;durP2;ratioP2;P2;SDS_P1;SDS_P2;PMS_P1;PMS_P2;Temp;Humidity;BMP_temperature;BMP_pressure;BME280_temperature;BME280_humidity;BME280_pressure;Samples;Min_cycle;Max_cycle;Signal;HPM_P1;HPM_P2
2023/01/05 00:02:01;;;;;;;7.88;1.50;;;;;;;;;;5061664;28;20473;-59
2023/01/05 00:04:26;;;;;;;5.28;1.27;;;;;;;;;;5061098;28;20028;-59
2023/01/05 00:06:51;;;;;;;5.10;1.50;;;;;;;;;;5064839;28;20467;-59
2023/01/05 00:09:17;;;;;;;7.40;1.70;;;;;;;;;;5065315;28;20035;-59
2023/01/05 00:22:43;;;;;;;8.40;1.98;;;;;;;;;;5062023;28;20397;-59
2023/01/05 00:25:09;;;;;;;4.97;1.70;;;;;;;;;;5062902;28;20030;-59
2023/01/05 00:27:34;;;;;;;11.98;2.38;;;;;;;;;;5062944;28;20394;-59
2023/01/05 00:29:59;;;;;;;13.57;1.85;;;;;;;;;;5063335;28;20115;-59
2023/01/05 00:32:25;;;;;;;8.90;1.83;;;;;;;;;;5064171;28;20465;-59
2023/01/05 00:34:53;;;;;;;8.63;2.20;;;;;;;;;;5063479;28;20028;-59
2023/01/05 00:37:18;;;;;;;10.40;1.98;;;;;;;;;;5063332;28;20044;-59
2023/01/05 00:39:43;;;;;;;15.13;2.70;;;;;;;;;;5063357;28;20032;-59
2023/01/05 00:42:09;;;;;;;11.73;2.10;;;;;;;;;;5060256;28;20093;-59
2023/01/05 00:44:34;;;;;;;10.95;2.20;;;;;;;;;;5063195;28;20032;-59
2023/01/05 00:47:02;;;;;;;15.60;2.35;;;;;;;;;;5063915;28;20056;-59
2023/01/05 00:49:27;;;;;;;15.02;2.45;;;;;;;;;;5062739;28;20494;-59
2023/01/05 00:51:52;;;;;;;13.20;2.63;;;;;;;;;;5063895;28;20047;-59
2023/01/05 00:54:18;;;;;;;17.50;3.00;;;;;;;;;;5063612;28;20039;-59
2023/01/05 00:56:43;;;;;;;18.35;2.97;;;;;;;;;;5063355;28;20024;-59
2023/01/05 00:59:08;;;;;;;17.20;3.22;;;;;;;;;;5061772;28;20028;-59
2023/01/05 01:01:33;;;;;;;17.98;2.50;;;;;;;;;;5063732;28;20650;-59
2023/01/05 01:03:59;;;;;;;24.55;3.05;;;;;;;;;;5060466;28;20025;-59
2023/01/05 01:06:24;;;;;;;16.15;2.58;;;;;;;;;;5063134;28;20049;-59
2023/01/05 01:08:49;;;;;;;20.70;3.50;;;;;;;;;;5063374;28;20262;-59
2023/01/05 01:11:17;;;;;;;18.40;2.55;;;;;;;;;;5063217;28;20025;-59
2023/01/05 01:13:43;;;;;;;19.80;2.60;;;;;;;;;;5060974;28;20028;-59
2023/01/05 01:16:09;;;;;;;22.15;3.03;;;;;;;;;;5062258;28;20366;-59
2023/01/05 01:18:34;;;;;;;15.27;2.50;;;;;;;;;;5061139;28;20025;-59
2023/01/05 01:20:59;;;;;;;16.55;2.60;;;;;;;;;;5062477;28;20417;-59
2023/01/05 01:23:25;;;;;;;16.58;2.60;;;;;;;;;;5060926;28;20292;-59
2023/01/05 01:25:50;;;;;;;22.98;4.05;;;;;;;;;;5062593;28;20028;-59
2023/01/05 01:28:15;;;;;;;17.88;3.45;;;;;;;;;;5063511;28;20032;-59
2023/01/05 01:30:41;;;;;;;18.00;3.05;;;;;;;;;;5062237;28;20020;-59
2023/01/05 01:33:06;;;;;;;17.35;2.85;;;;;;;;;;5061946;28;20144;-59
2023/01/05 01:35:31;;;;;;;15.27;2.47;;;;;;;;;;5061418;28;20356;-59
2023/01/05 01:37:56;;;;;;;20.80;3.22;;;;;;;;;;5062999;28;20044;-59
2023/01/05 01:40:21;;;;;;;23.98;2.92;;;;;;;;;;5062133;28;20489;-59
2023/01/05 01:42:47;;;;;;;22.60;2.88;;;;;;;;;;5061579;28;20108;-59
2023/01/05 01:45:18;;;;;;;24.75;3.30;;;;;;;;;;5061569;28;20024;-59
2023/01/05 01:47:45;;;;;;;16.95;3.33;;;;;;;;;;5057350;28;20024;-59
2023/01/05 01:50:14;;;;;;;27.33;3.25;;;;;;;;;;5061240;28;20029;-59
2023/01/05 01:52:40;;;;;;;18.33;2.88;;;;;;;;;;5058145;28;20431;-59
2023/01/05 01:55:05;;;;;;;25.02;3.90;;;;;;;;;;5049925;28;20102;-59
2023/01/05 01:57:33;;;;;;;32.25;3.58;;;;;;;;;;5062566;28;20209;-59
2023/01/05 02:00:01;;;;;;;16.52;2.83;;;;;;;;;;5062668;28;20029;-59
2023/01/05 02:02:27;;;;;;;21.67;3.40;;;;;;;;;;5060216;28;20044;-59
2023/01/05 02:04:52;;;;;;;23.23;3.13;;;;;;;;;;5063087;28;20619;-59
2023/01/05 02:07:18;;;;;;;21.35;3.53;;;;;;;;;;5062968;28;20048;-59
2023/01/05 02:09:43;;;;;;;25.42;2.80;;;;;;;;;;5058642;28;20459;-59
2023/01/05 02:12:26;;;;;;;19.05;2.97;;;;;;;;;;5060044;28;20029;-59
2023/01/05 02:15:07;;;;;;;23.15;3.22;;;;;;;;;;5062315;28;20143;-59
2023/01/05 02:17:32;;;;;;;;;;;;;;;;;;5063096;28;20028;-59
2023/01/05 02:20:03;;;;;;;19.40;3.15;;;;;;;;;;5062381;28;19931;-59
2023/01/05 02:22:29;;;;;;;28.60;3.30;;;;;;;;;;5057129;28;20192;-59
2023/01/05 02:24:54;;;;;;;30.15;3.17;;;;;;;;;;5062492;28;20481;-59
2023/01/05 02:27:24;;;;;;;27.77;3.17;;;;;;;;;;5061756;28;20030;-59
2023/01/05 02:29:54;;;;;;;31.67;3.40;;;;;;;;;;5060538;28;20352;-59
2023/01/05 02:32:42;;;;;;;27.08;3.97;;;;;;;;;;5053208;28;20027;-59
2023/01/05 02:35:14;;;;;;;16.67;3.60;;;;;;;;;;5063186;28;20477;-59
2023/01/05 02:37:54;;;;;;;30.52;4.65;;;;;;;;;;5066229;28;20021;-59
2023/01/05 02:40:20;;;;;;;30.92;3.47;;;;;;;;;;5077700;28;20375;-58
2023/01/05 02:42:46;;;;;;;29.88;3.50;;;;;;;;;;5060553;28;20043;-58
2023/01/05 02:45:12;;;;;;;21.55;3.33;;;;;;;;;;5042686;28;20251;-59
2023/01/05 02:47:38;;;;;;;15.55;2.80;;;;;;;;;;5063812;28;20032;-59
2023/01/05 02:50:05;;;;;;;20.55;3.28;;;;;;;;;;5063023;28;20056;-59
2023/01/05 02:52:34;;;;;;;30.27;3.45;;;;;;;;;;5064613;28;20040;-59
2023/01/05 02:55:01;;;;;;;23.65;3.65;;;;;;;;;;5060447;28;20131;-59
2023/01/05 02:57:47;;;;;;;24.02;3.33;;;;;;;;;;5059794;28;20051;-59
2023/01/05 03:00:13;;;;;;;31.27;3.92;;;;;;;;;;5053651;28;20314;-59
2023/01/05 03:02:38;;;;;;;25.08;3.63;;;;;;;;;;5064129;28;20016;-59
2023/01/05 03:05:08;;;;;;;23.20;3.55;;;;;;;;;;5063547;28;20082;-59
2023/01/05 03:07:34;;;;;;;37.15;4.47;;;;;;;;;;5065232;28;20487;-59
2023/01/05 03:13:39;;;;;;;22.92;3.25;;;;;;;;;;5065166;28;20025;-59
2023/01/05 03:15:29;;;;;;;17.08;2.80;;;;;;;;;;5065700;28;20519;-59
2023/01/05 03:17:56;;;;;;;25.95;3.30;;;;;;;;;;5064145;28;20017;-59
2023/01/05 03:20:26;;;;;;;27.20;4.03;;;;;;;;;;5063469;28;20454;-59
2023/01/05 03:36:51;;;;;;;23.15;3.20;;;;;;;;;;5065158;28;20531;-59
2023/01/05 03:39:16;;;;;;;16.48;2.40;;;;;;;;;;5061867;28;20036;-58
2023/01/05 03:41:41;;;;;;;20.70;3.28;;;;;;;;;;5061753;28;20016;-58
2023/01/05 03:44:06;;;;;;;19.98;3.05;;;;;;;;;;5060602;28;20081;-59
2023/01/05 03:46:32;;;;;;;22.17;3.50;;;;;;;;;;5055550;28;20049;-59
2023/01/05 03:48:57;;;;;;;27.65;3.55;;;;;;;;;;5063568;28;20431;-59
2023/01/05 03:51:22;;;;;;;29.42;3.58;;;;;;;;;;5062017;28;20103;-59
2023/01/05 03:53:47;;;;;;;26.42;3.47;;;;;;;;;;5064325;28;20122;-59
2023/01/05 03:56:13;;;;;;;20.23;3.40;;;;;;;;;;5064438;28;20432;-59
2023/01/05 03:58:38;;;;;;;21.90;3.22;;;;;;;;;;5062132;28;20559;-59
2023/01/05 04:01:03;;;;;;;20.35;3.33;;;;;;;;;;5062073;28;20025;-59
2023/01/05 04:03:29;;;;;;;23.67;3.03;;;;;;;;;;5064979;28;20020;-59
2023/01/05 04:05:54;;;;;;;19.20;3.80;;;;;;;;;;5063546;28;20048;-59
2023/01/05 04:08:19;;;;;;;26.80;3.30;;;;;;;;;;5064340;28;20084;-59
2023/01/05 04:10:44;;;;;;;25.25;3.20;;;;;;;;;;5064777;28;20031;-59
2023/01/05 04:13:10;;;;;;;27.05;4.72;;;;;;;;;;5063799;28;20427;-59
2023/01/05 04:15:35;;;;;;;26.00;4.10;;;;;;;;;;5065293;28;20474;-59
2023/01/05 04:18:00;;;;;;;37.08;4.70;;;;;;;;;;5063997;28;20637;-59
2023/01/05 04:20:25;;;;;;;22.05;3.03;;;;;;;;;;5062940;28;20020;-59
2023/01/05 04:22:51;;;;;;;39.83;4.30;;;;;;;;;;5064799;28;20032;-59
2023/01/05 04:25:16;;;;;;;28.33;3.60;;;;;;;;;;5064479;28;20032;-59
2023/01/05 04:27:41;;;;;;;32.10;3.47;;;;;;;;;;5064595;28;20040;-59
2023/01/05 04:30:07;;;;;;;27.52;2.67;;;;;;;;;;5064068;28;20082;-59
2023/01/05 04:32:32;;;;;;;19.58;3.13;;;;;;;;;;5058167;28;20033;-59
2023/01/05 04:34:57;;;;;;;19.15;3.42;;;;;;;;;;5064430;28;20098;-59
2023/01/05 04:37:23;;;;;;;22.40;4.47;;;;;;;;;;5062297;28;20085;-59
2023/01/05 04:39:48;;;;;;;22.75;3.50;;;;;;;;;;5063433;28;20071;-59
2023/01/05 04:42:13;;;;;;;26.20;3.38;;;;;;;;;;5055235;28;20155;-59
2023/01/05 04:44:38;;;;;;;17.92;3.17;;;;;;;;;;5062023;28;20059;-59
2023/01/05 04:47:03;;;;;;;23.55;3.65;;;;;;;;;;5064414;28;20187;-59
2023/01/05 04:49:29;;;;;;;32.80;4.07;;;;;;;;;;5062616;28;20026;-59
2023/01/05 04:51:54;;;;;;;24.13;3.00;;;;;;;;;;5062958;28;20453;-59
2023/01/05 04:54:19;;;;;;;26.08;3.28;;;;;;;;;;5062621;28;20279;-59
2023/01/05 04:56:44;;;;;;;23.50;4.15;;;;;;;;;;5059255;28;20016;-59
2023/01/05 04:59:09;;;;;;;21.85;3.38;;;;;;;;;;5062435;28;20498;-59
2023/01/05 05:01:35;;;;;;;26.90;3.60;;;;;;;;;;5062142;28;20025;-59
2023/01/05 05:04:00;;;;;;;26.00;3.65;;;;;;;;;;5062798;28;20032;-59
2023/01/05 05:06:25;;;;;;;27.08;3.85;;;;;;;;;;5063304;28;20139;-59
2023/01/05 05:08:51;;;;;;;35.35;4.35;;;;;;;;;;5061077;28;20020;-59
2023/01/05 05:11:16;;;;;;;22.25;3.22;;;;;;;;;;5063348;28;20028;-59
2023/01/05 05:13:41;;;;;;;30.75;3.42;;;;;;;;;;5063406;28;20024;-59
2023/01/05 05:16:07;;;;;;;24.10;3.42;;;;;;;;;;5064004;28;20032;-60
2023/01/05 05:18:32;;;;;;;19.63;3.17;;;;;;;;;;5062843;28;20025;-59
2023/01/05 05:20:57;;;;;;;23.25;4.03;;;;;;;;;;5064284;28;20035;-60
2023/01/05 05:23:23;;;;;;;25.52;3.90;;;;;;;;;;5058371;28;20024;-60
2023/01/05 05:25:48;;;;;;;18.35;3.42;;;;;;;;;;5063462;28;20028;-59
2023/01/05 05:28:14;;;;;;;32.80;4.97;;;;;;;;;;5061112;28;20538;-59
2023/01/05 05:30:39;;;;;;;30.95;3.65;;;;;;;;;;5063600;28;20032;-60
2023/01/05 05:33:04;;;;;;;21.85;3.05;;;;;;;;;;5062591;28;20029;-59
2023/01/05 05:35:30;;;;;;;31.98;4.47;;;;;;;;;;5063718;28;20059;-59
2023/01/05 05:37:55;;;;;;;26.90;5.35;;;;;;;;;;5062649;28;20455;-59
2023/01/05 05:40:20;;;;;;;29.20;5.20;;;;;;;;;;5062480;28;20025;-59
2023/01/05 05:42:45;;;;;;;31.85;5.80;;;;;;;;;;5060016;28;20066;-59
2023/01/05 05:45:10;;;;;;;33.30;3.90;;;;;;;;;;5062870;28;20185;-59
2023/01/05 05:47:36;;;;;;;30.15;3.92;;;;;;;;;;5061985;28;20024;-59
2023/01/05 05:50:01;;;;;;;27.65;3.65;;;;;;;;;;5062043;28;20024;-59
2023/01/05 05:52:26;;;;;;;33.80;4.45;;;;;;;;;;5059804;28;20474;-59
2023/01/05 05:54:52;;;;;;;32.40;4.50;;;;;;;;;;5058399;28;20473;-59
2023/01/05 05:57:17;;;;;;;22.85;3.97;;;;;;;;;;5061036;28;20115;-59
2023/01/05 05:59:42;;;;;;;24.85;3.35;;;;;;;;;;5061719;28;20021;-60
2023/01/05 06:02:07;;;;;;;33.75;3.83;;;;;;;;;;5061930;28;20024;-59
2023/01/05 06:04:33;;;;;;;30.95;3.95;;;;;;;;;;5062879;28;20039;-59
2023/01/05 06:06:58;;;;;;;19.52;4.10;;;;;;;;;;5061482;28;20040;-59
2023/01/05 06:09:23;;;;;;;28.73;4.60;;;;;;;;;;5080114;28;20119;-59
2023/01/05 06:11:49;;;;;;;30.27;5.53;;;;;;;;;;5066691;28;20070;-59
2023/01/05 06:14:14;;;;;;;26.95;4.22;;;;;;;;;;5064339;28;20058;-59
2023/01/05 06:16:39;;;;;;;29.75;4.00;;;;;;;;;;5064175;28;20062;-59
2023/01/05 06:19:05;;;;;;;30.63;3.45;;;;;;;;;;5066095;28;20406;-59
2023/01/05 06:21:30;;;;;;;29.90;3.92;;;;;;;;;;5063921;28;20028;-59
2023/01/05 06:23:55;;;;;;;35.25;4.70;;;;;;;;;;5066294;28;20584;-59
2023/01/05 06:26:20;;;;;;;27.65;4.00;;;;;;;;;;5063961;28;20439;-59
2023/01/05 06:28:46;;;;;;;31.38;4.75;;;;;;;;;;5064048;28;20122;-59
2023/01/05 06:31:11;;;;;;;22.42;3.47;;;;;;;;;;5066098;28;20048;-59
2023/01/05 06:33:36;;;;;;;25.88;3.47;;;;;;;;;;5065220;28;20137;-59
2023/01/05 06:36:01;;;;;;;25.83;4.30;;;;;;;;;;5066636;28;20028;-59
2023/01/05 06:38:27;;;;;;;29.95;4.03;;;;;;;;;;5065223;28;20021;-59
2023/01/05 06:40:53;;;;;;;22.10;2.92;;;;;;;;;;5065131;28;20032;-59
2023/01/05 06:43:18;;;;;;;33.25;4.10;;;;;;;;;;5062063;28;20033;-59
2023/01/05 06:45:43;;;;;;;24.42;3.78;;;;;;;;;;5065950;28;20036;-59
2023/01/05 06:48:09;;;;;;;36.80;5.28;;;;;;;;;;5047168;28;20047;-59
2023/01/05 06:50:34;;;;;;;27.20;3.35;;;;;;;;;;5065993;28;20024;-59
2023/01/05 06:52:59;;;;;;;25.58;3.40;;;;;;;;;;5064703;28;20073;-59
2023/01/05 06:55:25;;;;;;;30.95;3.65;;;;;;;;;;5065320;28;20119;-59
2023/01/05 06:57:50;;;;;;;22.88;3.58;;;;;;;;;;5064986;28;20025;-59
2023/01/05 07:00:15;;;;;;;22.55;2.88;;;;;;;;;;5062288;28;20067;-59
2023/01/05 07:02:40;;;;;;;30.40;3.72;;;;;;;;;;5065513;28;21622;-59
2023/01/05 07:05:06;;;;;;;31.20;3.67;;;;;;;;;;5065275;28;20031;-59
2023/01/05 07:07:31;;;;;;;21.40;3.10;;;;;;;;;;5064614;28;20052;-59
2023/01/05 07:09:57;;;;;;;31.08;3.45;;;;;;;;;;5063096;28;20120;-59
2023/01/05 07:12:22;;;;;;;30.55;3.15;;;;;;;;;;5062786;28;20020;-59
2023/01/05 07:14:47;;;;;;;20.20;3.47;;;;;;;;;;5065832;28;20036;-59
2023/01/05 07:17:13;;;;;;;25.77;3.53;;;;;;;;;;5064005;28;20356;-59
2023/01/05 07:19:38;;;;;;;22.10;3.13;;;;;;;;;;5063966;28;20024;-59
2023/01/05 07:22:03;;;;;;;28.63;3.67;;;;;;;;;;5065175;28;20021;-59
2023/01/05 07:24:28;;;;;;;26.10;3.40;;;;;;;;;;5063781;28;20455;-59
2023/01/05 07:26:54;;;;;;;24.77;3.92;;;;;;;;;;5064839;28;20078;-59
2023/01/05 07:29:19;;;;;;;24.00;2.97;;;;;;;;;;5064670;28;20734;-59
2023/01/05 07:31:46;;;;;;;21.83;3.17;;;;;;;;;;5065686;28;20073;-59
2023/01/05 07:34:11;;;;;;;24.50;3.85;;;;;;;;;;5064677;28;20072;-59
2023/01/05 07:36:36;;;;;;;21.48;3.78;;;;;;;;;;5064821;28;20340;-59
2023/01/05 07:39:02;;;;;;;20.10;3.20;;;;;;;;;;5064366;28;20028;-59
2023/01/05 07:41:27;;;;;;;33.13;3.65;;;;;;;;;;5060761;28;20475;-59
2023/01/05 07:43:52;;;;;;;32.88;3.45;;;;;;;;;;5065058;28;20426;-59
2023/01/05 07:46:17;;;;;;;21.55;3.15;;;;;;;;;;5062351;28;20028;-59
2023/01/05 07:48:43;;;;;;;25.58;3.28;;;;;;;;;;5057767;28;20025;-59
2023/01/05 07:51:08;;;;;;;18.35;2.65;;;;;;;;;;5063255;28;20032;-59
2023/01/05 07:53:36;;;;;;;22.60;3.50;;;;;;;;;;5058766;28;20035;-59
2023/01/05 07:56:01;;;;;;;22.42;2.80;;;;;;;;;;5059621;28;20044;-59
2023/01/05 07:58:26;;;;;;;20.45;3.10;;;;;;;;;;5063252;28;20070;-59
2023/01/05 08:00:52;;;;;;;21.60;2.90;;;;;;;;;;5062388;28;20028;-59
2023/01/05 08:03:17;;;;;;;19.60;2.67;;;;;;;;;;5058499;28;20021;-59
2023/01/05 08:05:43;;;;;;;29.85;2.97;;;;;;;;;;5057949;28;20147;-59
2023/01/05 08:08:08;;;;;;;22.42;3.25;;;;;;;;;;5061800;28;20732;-59
2023/01/05 08:10:33;;;;;;;22.88;3.50;;;;;;;;;;5060368;28;20534;-59
2023/01/05 08:15:46;;;;;;;34.58;3.85;;;;;;;;;;5060455;28;20034;-59
2023/01/05 08:18:11;;;;;;;28.08;3.55;;;;;;;;;;5057007;28;20021;-59
2023/01/05 08:20:36;;;;;;;25.38;4.22;;;;;;;;;;5056841;28;20526;-60
2023/01/05 08:23:01;;;;;;;29.45;3.47;;;;;;;;;;5060878;28;20031;-59
2023/01/05 08:25:27;;;;;;;27.42;3.75;;;;;;;;;;5059481;28;20016;-59
2023/01/05 08:27:52;;;;;;;31.75;4.25;;;;;;;;;;5060048;28;20056;-59
2023/01/05 08:30:17;;;;;;;24.67;4.35;;;;;;;;;;5060954;28;20017;-59
2023/01/05 08:32:43;;;;;;;28.00;3.47;;;;;;;;;;5061523;28;20110;-60
2023/01/05 08:35:08;;;;;;;30.42;4.63;;;;;;;;;;5057790;28;20418;-59
2023/01/05 08:37:33;;;;;;;29.90;3.35;;;;;;;;;;5057902;28;20241;-59
2023/01/05 08:39:59;;;;;;;30.08;4.75;;;;;;;;;;5054865;28;20426;-59
2023/01/05 08:42:24;;;;;;;21.05;3.80;;;;;;;;;;5058739;28;20048;-59
2023/01/05 08:44:52;;;;;;;28.83;3.80;;;;;;;;;;5057371;28;20197;-59
2023/01/05 08:47:17;;;;;;;32.42;3.92;;;;;;;;;;5057088;28;20086;-59
2023/01/05 08:49:42;;;;;;;30.25;3.63;;;;;;;;;;5054770;28;20028;-59
2023/01/05 08:52:08;;;;;;;29.30;3.90;;;;;;;;;;5050744;28;20478;-59
2023/01/05 08:54:33;;;;;;;22.70;4.57;;;;;;;;;;5050704;28;21028;-59
2023/01/05 08:56:58;;;;;;;31.77;4.22;;;;;;;;;;5059291;28;20108;-59
2023/01/05 08:59:24;;;;;;;23.95;3.38;;;;;;;;;;5057732;28;20117;-59
2023/01/05 09:01:49;;;;;;;34.13;3.63;;;;;;;;;;5059400;28;20017;-59
2023/01/05 09:04:14;;;;;;;27.83;3.85;;;;;;;;;;5059874;28;20328;-59
2023/01/05 09:06:40;;;;;;;27.00;3.22;;;;;;;;;;5060662;28;20106;-59
2023/01/05 09:09:05;;;;;;;22.50;4.00;;;;;;;;;;5060332;28;20023;-58
2023/01/05 09:11:30;;;;;;;21.65;3.92;;;;;;;;;;5059794;28;20111;-59
2023/01/05 09:13:56;;;;;;;25.67;2.97;;;;;;;;;;5056745;28;20032;-59
2023/01/05 09:16:22;;;;;;;32.85;3.80;;;;;;;;;;5062208;28;20486;-59
2023/01/05 09:18:48;;;;;;;27.95;3.65;;;;;;;;;;5060550;28;20319;-59
2023/01/05 09:21:13;;;;;;;26.42;3.22;;;;;;;;;;5063191;28;20401;-59
2023/01/05 09:23:38;;;;;;;28.83;3.72;;;;;;;;;;5063252;28;20529;-59
2023/01/05 09:26:04;;;;;;;31.10;3.97;;;;;;;;;;5062438;28;20157;-59
2023/01/05 09:28:29;;;;;;;30.42;4.43;;;;;;;;;;5063680;28;20021;-59
2023/01/05 09:30:55;;;;;;;24.15;3.60;;;;;;;;;;5062668;28;20540;-59
2023/01/05 09:33:20;;;;;;;20.92;3.15;;;;;;;;;;5062700;28;20029;-59
2023/01/05 09:35:54;;;;;;;28.90;3.67;;;;;;;;;;5061155;28;20495;-59
2023/01/05 09:38:20;;;;;;;34.88;3.65;;;;;;;;;;5060637;28;20028;-59
2023/01/05 09:40:45;;;;;;;31.83;4.03;;;;;;;;;;5062453;28;20352;-59
2023/01/05 09:43:13;;;;;;;32.60;4.43;;;;;;;;;;5055008;28;20056;-59
2023/01/05 09:45:38;;;;;;;36.70;4.43;;;;;;;;;;5065724;28;20020;-59
2023/01/05 09:48:03;;;;;;;27.48;4.60;;;;;;;;;;5066384;28;20035;-60
2023/01/05 09:50:29;;;;;;;26.50;3.70;;;;;;;;;;5064628;28;20394;-59
2023/01/05 09:52:56;;;;;;;30.40;4.47;;;;;;;;;;5066600;28;20032;-59
2023/01/05 09:55:22;;;;;;;21.42;3.10;;;;;;;;;;5066509;28;20391;-59
2023/01/05 09:57:52;;;;;;;23.58;3.25;;;;;;;;;;5065362;28;20338;-59
2023/01/05 10:00:17;;;;;;;33.15;4.50;;;;;;;;;;5061600;28;20095;-60
2023/01/05 10:02:48;;;;;;;33.92;4.18;;;;;;;;;;5064979;28;20037;-59
2023/01/05 10:05:13;;;;;;;28.77;4.03;;;;;;;;;;5058089;28;20027;-59
2023/01/05 10:07:42;;;;;;;29.75;4.35;;;;;;;;;;5062250;28;20411;-59
2023/01/05 10:10:13;;;;;;;21.13;3.47;;;;;;;;;;5062393;28;20510;-59
2023/01/05 10:13:04;;;;;;;37.85;4.30;;;;;;;;;;5063359;28;20099;-59
2023/01/05 10:15:34;;;;;;;29.08;3.78;;;;;;;;;;5062343;28;20682;-59
2023/01/05 10:18:00;;;;;;;25.02;4.15;;;;;;;;;;5064506;28;20031;-59
2023/01/05 10:20:39;;;;;;;25.20;3.83;;;;;;;;;;5064186;28;20032;-59
2023/01/05 10:23:23;;;;;;;25.35;4.13;;;;;;;;;;5063513;28;20607;-58
2023/01/05 10:26:14;;;;;;;37.80;4.55;;;;;;;;;;5058856;28;20033;-59
2023/01/05 10:28:45;;;;;;;22.63;3.80;;;;;;;;;;5058832;28;20047;-59
2023/01/05 10:31:10;;;;;;;;;;;;;;;;;;5062444;28;20436;-59
2023/01/05 10:33:40;;;;;;;25.38;4.70;;;;;;;;;;5064764;28;20537;-59
2023/01/05 10:36:25;;;;;;;30.40;4.18;;;;;;;;;;5062873;28;20036;-59
2023/01/05 10:38:53;;;;;;;41.90;4.70;;;;;;;;;;5058838;28;20107;-59
2023/01/05 10:41:19;;;;;;;31.38;4.47;;;;;;;;;;5050330;28;20441;-59
2023/01/05 10:44:03;;;;;;;30.25;4.40;;;;;;;;;;5074810;28;20028;-59
2023/01/05 10:46:28;;;;;;;37.67;4.40;;;;;;;;;;5074980;28;20522;-59
2023/01/05 10:48:53;;;;;;;32.13;4.03;;;;;;;;;;5063466;28;20117;-59
2023/01/05 10:51:18;;;;;;;35.25;3.58;;;;;;;;;;5063727;28;20445;-59
2023/01/05 10:53:44;;;;;;;32.72;3.65;;;;;;;;;;5064656;28;20471;-59
2023/01/05 10:56:15;;;;;;;43.03;5.32;;;;;;;;;;5062692;28;20612;-59
2023/01/05 10:58:44;;;;;;;28.67;4.07;;;;;;;;;;5059289;28;20158;-59
2023/01/05 11:01:15;;;;;;;28.52;4.18;;;;;;;;;;5064066;28;20039;-59
2023/01/05 11:03:42;;;;;;;26.90;4.35;;;;;;;;;;5063898;28;20553;-59
2023/01/05 11:06:17;;;;;;;31.27;4.47;;;;;;;;;;5058797;28;20056;-59
2023/01/05 11:08:42;;;;;;;39.05;4.03;;;;;;;;;;5061663;28;20147;-59
2023/01/05 11:11:07;;;;;;;36.22;4.55;;;;;;;;;;5060810;28;20207;-58
2023/01/05 11:13:36;;;;;;;31.70;4.13;;;;;;;;;;5065107;28;20017;-60
2023/01/05 11:16:06;;;;;;;33.28;4.75;;;;;;;;;;5062541;28;20063;-59
2023/01/05 11:18:33;;;;;;;27.33;4.10;;;;;;;;;;5063272;28;20104;-60
2023/01/05 11:21:14;;;;;;;29.35;4.15;;;;;;;;;;5061372;28;20273;-58
2023/01/05 11:23:43;;;;;;;29.58;4.45;;;;;;;;;;5059774;28;20144;-58
2023/01/05 11:26:18;;;;;;;33.57;4.63;;;;;;;;;;5060245;28;20016;-58
2023/01/05 11:28:59;;;;;;;34.78;4.97;;;;;;;;;;5061892;28;20545;-60
2023/01/05 11:31:33;;;;;;;29.70;4.88;;;;;;;;;;5062446;28;20322;-60
2023/01/05 11:33:59;;;;;;;30.35;4.22;;;;;;;;;;5063132;28;20280;-58
2023/01/05 11:36:24;;;;;;;32.58;4.65;;;;;;;;;;5055792;28;20025;-58
2023/01/05 11:38:53;;;;;;;30.35;4.70;;;;;;;;;;5061034;28;20019;-58
2023/01/05 11:41:18;;;;;;;32.40;4.32;;;;;;;;;;5062666;28;20020;-58
2023/01/05 11:43:45;;;;;;;39.13;4.10;;;;;;;;;;5054011;28;20020;-58
2023/01/05 11:46:13;;;;;;;35.28;4.10;;;;;;;;;;5060302;28;20056;-58
2023/01/05 11:48:38;;;;;;;27.77;3.85;;;;;;;;;;5060086;28;20009;-58
2023/01/05 11:51:04;;;;;;;21.80;3.83;;;;;;;;;;5063139;28;20040;-58
2023/01/05 11:53:32;;;;;;;35.00;4.75;;;;;;;;;;5062810;28;20020;-58
2023/01/05 11:56:18;;;;;;;28.15;3.60;;;;;;;;;;5061293;28;20035;-58
2023/01/05 11:58:44;;;;;;;29.45;4.93;;;;;;;;;;5061076;28;20063;-61
2023/01/05 12:01:10;;;;;;;25.38;3.40;;;;;;;;;;5061438;28;20364;-58
2023/01/05 12:03:54;;;;;;;33.45;3.85;;;;;;;;;;5062484;28;20063;-58
2023/01/05 12:06:22;;;;;;;26.50;3.45;;;;;;;;;;5059280;28;20037;-58
2023/01/05 12:08:50;;;;;;;31.92;4.55;;;;;;;;;;5062307;28;20139;-58
2023/01/05 12:11:18;;;;;;;28.42;3.38;;;;;;;;;;5062607;28;20039;-59
2023/01/05 12:13:59;;;;;;;27.92;3.60;;;;;;;;;;5060189;28;20046;-59
2023/01/05 12:16:44;;;;;;;31.33;3.80;;;;;;;;;;5076439;28;20383;-58
2023/01/05 12:19:12;;;;;;;24.20;3.13;;;;;;;;;;5060731;28;20065;-58
2023/01/05 12:21:41;;;;;;;19.23;2.55;;;;;;;;;;5060034;28;20021;-58
2023/01/05 12:24:18;;;;;;;25.13;3.85;;;;;;;;;;5058361;28;20035;-58
2023/01/05 12:26:56;;;;;;;21.50;3.30;;;;;;;;;;5057460;28;20118;-58
2023/01/05 12:29:31;;;;;;;26.70;3.90;;;;;;;;;;5059088;28;20039;-60
2023/01/05 12:32:09;;;;;;;28.33;3.63;;;;;;;;;;5077145;28;20028;-59
2023/01/05 12:34:53;;;;;;;22.58;3.38;;;;;;;;;;5060571;28;20032;-59
2023/01/05 12:37:21;;;;;;;26.52;3.40;;;;;;;;;;5056926;28;20454;-59
2023/01/05 12:39:56;;;;;;;27.92;2.88;;;;;;;;;;5058941;28;20077;-58
2023/01/05 12:42:39;;;;;;;24.17;3.33;;;;;;;;;;5052572;28;20100;-59
2023/01/05 12:45:16;;;;;;;29.25;4.90;;;;;;;;;;5061309;28;20017;-59
2023/01/05 12:47:45;;;;;;;24.40;3.63;;;;;;;;;;5060052;28;20025;-58
2023/01/05 12:50:22;;;;;;;23.48;3.42;;;;;;;;;;5061984;28;20027;-59
2023/01/05 12:52:48;;;;;;;31.15;4.05;;;;;;;;;;5062845;28;20046;-58
2023/01/05 12:55:19;;;;;;;21.92;4.00;;;;;;;;;;5059075;28;20086;-59
2023/01/05 12:57:44;;;;;;;;;;;;;;;;;;5058103;28;20020;-58
2023/01/05 13:00:10;;;;;;;29.10;3.88;;;;;;;;;;5062808;28;20360;-59
2023/01/05 13:02:48;;;;;;;31.83;3.83;;;;;;;;;;5060691;28;20393;-59
2023/01/05 13:05:26;;;;;;;30.23;3.85;;;;;;;;;;5062854;28;20214;-59
2023/01/05 13:08:06;;;;;;;24.33;3.00;;;;;;;;;;5060540;28;20044;-58
2023/01/05 13:10:31;;;;;;;27.25;4.57;;;;;;;;;;5060656;28;20506;-59
2023/01/05 13:12:58;;;;;;;42.60;4.93;;;;;;;;;;5057029;28;20262;-58
2023/01/05 13:15:26;;;;;;;36.83;4.38;;;;;;;;;;5060468;28;20338;-59
2023/01/05 13:17:52;;;;;;;36.85;4.25;;;;;;;;;;5059547;28;20017;-58
2023/01/05 13:20:27;;;;;;;37.97;4.05;;;;;;;;;;5060615;28;20078;-58
2023/01/05 13:22:58;;;;;;;39.40;4.15;;;;;;;;;;5056139;28;20039;-58
2023/01/05 13:25:24;;;;;;;30.52;4.50;;;;;;;;;;5061302;28;20020;-58
2023/01/05 13:27:49;;;;;;;33.80;5.20;;;;;;;;;;5063072;28;20146;-58
2023/01/05 13:30:17;;;;;;;44.83;6.38;;;;;;;;;;5061161;28;20225;-58
2023/01/05 13:33:01;;;;;;;34.72;4.55;;;;;;;;;;5061156;28;20454;-58
2023/01/05 13:35:26;;;;;;;27.38;4.22;;;;;;;;;;5061471;28;20468;-59
2023/01/05 13:37:59;;;;;;;31.48;4.78;;;;;;;;;;5078584;28;20115;-59
2023/01/05 13:40:33;;;;;;;40.72;4.90;;;;;;;;;;5056336;28;20029;-59
2023/01/05 13:42:58;;;;;;;30.45;3.97;;;;;;;;;;5043161;28;20021;-59
2023/01/05 13:45:29;;;;;;;37.63;4.47;;;;;;;;;;5058392;28;20028;-58
2023/01/05 13:48:00;;;;;;;52.70;6.20;;;;;;;;;;5061991;28;20031;-59
2023/01/05 13:50:29;;;;;;;36.55;4.70;;;;;;;;;;5062352;28;20056;-59
2023/01/05 13:52:58;;;;;;;40.60;6.00;;;;;;;;;;5060542;28;20516;-59
2023/01/05 13:55:23;;;;;;;29.45;4.72;;;;;;;;;;5060686;28;20040;-58
2023/01/05 13:57:48;;;;;;;33.97;5.13;;;;;;;;;;5060989;28;20379;-59
2023/01/05 14:00:22;;;;;;;37.78;5.72;;;;;;;;;;5062937;28;20494;-59
2023/01/05 14:03:06;;;;;;;38.70;4.57;;;;;;;;;;5059693;28;20021;-59
2023/01/05 14:05:32;;;;;;;43.15;5.95;;;;;;;;;;5059501;28;20036;-59
2023/01/05 14:07:58;;;;;;;25.80;4.18;;;;;;;;;;5062077;28;20044;-61
2023/01/05 14:10:25;;;;;;;40.05;4.07;;;;;;;;;;5061794;28;20531;-58
2023/01/05 14:12:50;;;;;;;37.83;5.32;;;;;;;;;;5060834;28;20044;-59
2023/01/05 14:15:30;;;;;;;49.03;5.95;;;;;;;;;;5062195;28;20097;-58
2023/01/05 14:18:00;;;;;;;;;;;;;;;;;;5056713;28;20020;-58
2023/01/05 14:20:31;;;;;;;37.88;5.72;;;;;;;;;;5062030;28;19912;-58
2023/01/05 14:22:57;;;;;;;36.42;4.90;;;;;;;;;;5061782;28;20562;-59
2023/01/05 14:25:38;;;;;;;54.92;5.72;;;;;;;;;;5060077;28;20099;-59
2023/01/05 14:28:22;;;;;;;54.50;5.60;;;;;;;;;;5060805;28;20031;-59
2023/01/05 14:30:50;;;;;;;39.63;5.63;;;;;;;;;;5062119;28;20104;-60
2023/01/05 14:33:16;;;;;;;35.45;4.43;;;;;;;;;;5063857;28;20035;-59
2023/01/05 14:35:41;;;;;;;50.55;6.53;;;;;;;;;;5064072;28;20356;-59
2023/01/05 14:38:12;;;;;;;39.85;6.07;;;;;;;;;;5065576;28;20130;-59
2023/01/05 14:40:41;;;;;;;59.88;5.68;;;;;;;;;;5065253;28;20021;-59
2023/01/05 14:43:26;;;;;;;51.25;5.18;;;;;;;;;;5060637;28;20024;-59
2023/01/05 14:45:56;;;;;;;51.55;5.90;;;;;;;;;;5058194;28;20123;-60
2023/01/05 14:48:29;;;;;;;52.83;7.80;;;;;;;;;;5063680;28;20091;-60
2023/01/05 14:51:13;;;;;;;50.40;5.28;;;;;;;;;;5060141;28;20502;-59
2023/01/05 14:53:39;;;;;;;53.33;5.00;;;;;;;;;;5062935;28;20026;-59
2023/01/05 14:56:07;;;;;;;54.10;5.90;;;;;;;;;;5064438;28;20422;-59
2023/01/05 14:58:35;;;;;;;52.08;16.13;;;;;;;;;;5064333;28;20017;-60
2023/01/05 15:01:12;;;;;;;51.75;6.85;;;;;;;;;;5065603;28;20272;-59
2023/01/05 15:03:46;;;;;;;52.10;6.88;;;;;;;;;;5065110;28;20021;-60
2023/01/05 15:06:14;;;;;;;42.42;5.95;;;;;;;;;;5062247;28;20048;-60